createdAt,value
2022-10-05T00:00:46.630Z,11.77
2022-10-05T00:03:14.530Z,16.58
2022-10-05T00:05:42.788Z,17.63
2022-10-05T00:08:16.936Z,12.00
2022-10-05T00:10:46.317Z,13.75
2022-10-05T00:13:15.515Z,11.60
2022-10-05T00:15:43.936Z,12.90
2022-10-05T00:18:16.213Z,10.00
2022-10-05T00:20:45.131Z,16.80
2022-10-05T00:23:20.084Z,12.32
2022-10-05T00:25:48.501Z,11.23
2022-10-05T00:28:19.440Z,11.38
2022-10-05T00:30:47.495Z,8.75
2022-10-05T00:33:15.380Z,9.32
2022-10-05T00:35:43.250Z,10.35
2022-10-05T00:38:11.147Z,12.77
2022-10-05T00:40:53.147Z,12.23
2022-10-05T00:43:41.657Z,11.40
2022-10-05T00:46:16.946Z,17.17
2022-10-05T00:48:53.601Z,16.52
2022-10-05T00:51:26.766Z,17.15
2022-10-05T00:54:18.147Z,13.77
2022-10-05T00:57:07.839Z,21.27
2022-10-05T00:59:47.208Z,20.33
2022-10-05T01:02:19.371Z,23.25
2022-10-05T01:04:52.421Z,18.00
2022-10-05T01:07:31.438Z,20.58
2022-10-05T01:10:07.221Z,15.50
2022-10-05T01:12:42.411Z,17.95
2022-10-05T01:15:14.642Z,16.80
2022-10-05T01:17:47.295Z,15.70
2022-10-05T01:20:32.836Z,17.65
2022-10-05T01:23:24.171Z,15.13
2022-10-05T01:26:06.937Z,13.77
2022-10-05T01:28:39.253Z,8.68
2022-10-05T01:31:13.907Z,10.60
2022-10-05T01:33:47.417Z,8.27
2022-10-05T01:36:24.580Z,12.27
2022-10-05T01:38:58.909Z,11.20
2022-10-05T01:41:34.840Z,8.45
2022-10-05T01:44:09.663Z,10.95
2022-10-05T01:46:40.418Z,12.05
2022-10-05T01:49:23.528Z,13.95
2022-10-05T01:52:02.814Z,8.30
2022-10-05T01:54:41.350Z,9.57
2022-10-05T01:57:19.194Z,14.68
2022-10-05T02:00:02.346Z,7.00
2022-10-05T02:02:32.761Z,8.27
2022-10-05T02:05:06.246Z,11.93
2022-10-05T02:07:37.743Z,10.80
2022-10-05T02:10:14.929Z,6.35
2022-10-05T02:12:45.425Z,8.00
2022-10-05T02:15:19.124Z,17.60
2022-10-05T02:17:50.066Z,9.48
2022-10-05T02:20:24.788Z,10.35
2022-10-05T02:22:55.659Z,6.88
2022-10-05T02:25:29.034Z,6.88
2022-10-05T02:28:03.339Z,8.85
2022-10-05T02:30:38.861Z,7.93
2022-10-05T02:33:11.406Z,8.73
2022-10-05T02:35:39.437Z,18.40
2022-10-05T02:38:13.481Z,10.60
2022-10-05T02:40:51.694Z,10.68
2022-10-05T02:43:27.055Z,15.93
2022-10-05T02:46:02.456Z,10.32
2022-10-05T02:48:39.958Z,8.27
2022-10-05T02:51:16.532Z,6.93
2022-10-05T02:53:55.589Z,9.90
2022-10-05T02:56:29.386Z,10.47
2022-10-05T02:59:05.004Z,10.60
2022-10-05T03:01:42.230Z,11.13
2022-10-05T03:04:21.868Z,10.50
2022-10-05T03:06:59.776Z,8.73
2022-10-05T03:09:32.526Z,10.23
2022-10-05T03:12:09.211Z,10.52
2022-10-05T03:14:46.546Z,6.35
2022-10-05T03:17:19.095Z,10.05
2022-10-05T03:20:12.949Z,11.38
2022-10-05T03:22:50.744Z,9.90
2022-10-05T03:25:42.441Z,12.88
2022-10-05T03:28:16.858Z,10.98
2022-10-05T03:30:53.036Z,8.68
2022-10-05T03:33:31.867Z,14.38
2022-10-05T03:36:07.204Z,13.38
2022-10-05T03:38:42.845Z,28.42
2022-10-05T03:41:17.815Z,123.28
2022-10-05T03:44:07.850Z,74.70
2022-10-05T03:46:50.107Z,18.13
2022-10-05T03:49:28.227Z,18.63
2022-10-05T03:52:02.507Z,12.50
2022-10-05T03:54:36.102Z,16.95
2022-10-05T03:57:10.595Z,17.77
2022-10-05T03:59:43.329Z,17.35
2022-10-05T04:02:20.953Z,57.47
2022-10-05T04:04:55.708Z,43.03
2022-10-05T04:07:32.935Z,17.45
2022-10-05T04:10:04.374Z,50.05
2022-10-05T04:12:36.610Z,45.70
2022-10-05T04:15:09.169Z,42.63
2022-10-05T04:17:43.317Z,64.05
2022-10-05T04:20:20.241Z,52.67
2022-10-05T04:22:54.888Z,41.67
2022-10-05T04:25:26.296Z,47.88
2022-10-05T04:27:59.400Z,91.15
2022-10-05T04:30:27.330Z,68.20
2022-10-05T04:32:57.313Z,55.53
2022-10-05T04:35:46.266Z,84.95
2022-10-05T04:38:28.322Z,34.17
2022-10-05T04:41:12.664Z,69.43
2022-10-05T04:43:55.296Z,52.10
2022-10-05T04:46:38.292Z,35.42
2022-10-05T04:49:31.904Z,39.70
2022-10-05T04:52:07.776Z,56.10
2022-10-05T04:54:47.782Z,40.83
2022-10-05T04:57:22.915Z,57.70
2022-10-05T05:00:09.438Z,45.17
2022-10-05T05:02:53.117Z,65.45
2022-10-05T05:05:35.854Z,64.25
2022-10-05T05:08:17.554Z,63.50
2022-10-05T05:10:54.831Z,24.55
2022-10-05T05:13:45.037Z,41.58
2022-10-05T05:16:21.065Z,26.10
2022-10-05T05:19:04.601Z,37.45
2022-10-05T05:21:43.445Z,24.42
2022-10-05T05:24:20.879Z,42.75
2022-10-05T05:27:10.790Z,32.58
2022-10-05T05:32:21.943Z,40.88
2022-10-05T05:35:02.774Z,46.25
2022-10-05T05:37:36.859Z,26.40
2022-10-05T05:40:14.994Z,27.30
2022-10-05T05:42:53.350Z,25.45
2022-10-05T05:45:31.167Z,31.40
2022-10-05T05:48:00.622Z,23.02
2022-10-05T05:50:41.374Z,26.63
2022-10-05T05:53:15.844Z,23.55
2022-10-05T05:55:49.429Z,26.40
2022-10-05T05:58:23.376Z,34.58
2022-10-05T06:00:58.383Z,33.75
2022-10-05T06:03:29.907Z,30.27
2022-10-05T06:06:01.739Z,27.58
2022-10-05T06:08:36.866Z,30.73
2022-10-05T06:11:11.112Z,27.02
2022-10-05T06:13:41.475Z,26.27
2022-10-05T06:16:20.570Z,33.35
2022-10-05T06:18:53.049Z,31.05
2022-10-05T06:21:26.265Z,31.83
2022-10-05T06:24:00.350Z,19.05
2022-10-05T06:26:44.083Z,21.55
2022-10-05T06:29:17.783Z,25.30
2022-10-05T06:32:03.173Z,18.60
2022-10-05T06:34:51.423Z,17.88
2022-10-05T06:37:29.121Z,15.77
2022-10-05T06:40:12.159Z,21.75
2022-10-05T06:42:51.282Z,17.70
2022-10-05T06:45:26.062Z,20.20
2022-10-05T06:48:05.033Z,15.57
2022-10-05T06:50:38.134Z,19.33
2022-10-05T06:53:29.135Z,11.35
2022-10-05T06:56:04.545Z,12.20
2022-10-05T06:58:46.585Z,13.77
2022-10-05T07:01:23.813Z,11.48
2022-10-05T07:04:07.674Z,24.55
2022-10-05T07:06:39.318Z,13.50
2022-10-05T07:09:22.191Z,12.55
2022-10-05T07:12:05.137Z,14.15
2022-10-05T07:14:47.145Z,19.33
2022-10-05T07:17:29.420Z,8.40
2022-10-05T07:20:04.841Z,19.48
2022-10-05T07:23:02.057Z,10.25
2022-10-05T07:25:36.107Z,16.20
2022-10-05T07:28:08.811Z,11.45
2022-10-05T07:30:46.081Z,9.82
2022-10-05T07:33:21.405Z,7.43
2022-10-05T07:36:14.104Z,6.80
2022-10-05T07:38:47.442Z,6.45
2022-10-05T07:41:20.860Z,7.25
2022-10-05T07:44:02.482Z,11.32
2022-10-05T07:46:45.525Z,7.85
2022-10-05T07:49:22.656Z,6.10
2022-10-05T07:51:54.603Z,6.85
2022-10-05T07:54:26.225Z,6.78
2022-10-05T07:57:03.229Z,9.18
2022-10-05T07:59:37.255Z,8.32
2022-10-05T08:02:15.972Z,10.65
2022-10-05T08:04:53.439Z,13.73
2022-10-05T08:07:21.880Z,6.32
2022-10-05T08:17:26.973Z,8.32
2022-10-05T08:20:02.119Z,10.63
2022-10-05T08:22:36.579Z,13.77
2022-10-05T08:25:11.151Z,11.07
2022-10-05T08:27:48.521Z,8.52
2022-10-05T08:30:18.330Z,10.32
2022-10-05T08:56:31.515Z,7.38
2022-10-05T08:59:29.605Z,5.07
2022-10-05T09:02:20.454Z,8.57
2022-10-05T09:05:19.582Z,7.45
2022-10-05T09:08:15.352Z,6.17
2022-10-05T09:11:02.454Z,6.85
2022-10-05T09:13:54.166Z,9.30
2022-10-05T09:16:59.089Z,7.32
2022-10-05T09:19:53.424Z,6.35
2022-10-05T09:22:57.968Z,5.30
2022-10-05T09:25:42.991Z,8.32
2022-10-05T09:28:25.804Z,5.90
2022-10-05T09:31:03.754Z,6.35
2022-10-05T09:34:09.182Z,7.35
2022-10-05T09:37:27.174Z,6.97
2022-10-05T09:40:28.578Z,5.05
2022-10-05T09:43:18.837Z,4.38
2022-10-05T09:46:13.883Z,7.97
2022-10-05T09:49:01.732Z,7.03
2022-10-05T09:52:06.120Z,5.45
2022-10-05T09:55:23.970Z,4.13
2022-10-05T09:58:31.253Z,12.48
2022-10-05T10:01:29.060Z,5.75
2022-10-05T10:04:15.319Z,5.15
2022-10-05T10:07:11.784Z,4.75
2022-10-05T10:09:52.486Z,5.20
2022-10-05T10:12:37.065Z,6.57
2022-10-05T10:15:38.367Z,7.07
2022-10-05T10:18:29.328Z,6.18
2022-10-05T10:21:21.897Z,4.75
2022-10-05T10:24:03.552Z,6.60
2022-10-05T10:26:59.270Z,4.97
2022-10-05T10:30:03.723Z,5.13
2022-10-05T10:33:11.724Z,5.60
2022-10-05T10:35:43.087Z,6.68
2022-10-05T10:38:52.373Z,8.38
2022-10-05T10:41:49.794Z,4.85
2022-10-05T10:44:53.439Z,5.68
2022-10-05T10:47:40.945Z,6.78
2022-10-05T10:50:43.966Z,10.35
2022-10-05T10:53:48.858Z,8.23
2022-10-05T10:56:30.609Z,5.70
2022-10-05T10:59:27.855Z,5.82
2022-10-05T11:02:16.613Z,4.72
2022-10-05T11:05:13.006Z,3.78
2022-10-05T11:08:08.504Z,5.47
2022-10-05T11:11:12.137Z,4.75
2022-10-05T11:14:10.325Z,3.60
2022-10-05T11:17:25.160Z,5.75
2022-10-05T11:20:34.442Z,3.90
2022-10-05T11:23:23.174Z,3.50
2022-10-05T11:26:17.978Z,9.10
2022-10-05T11:29:06.252Z,6.45
2022-10-05T11:31:54.101Z,7.88
2022-10-05T11:34:39.814Z,5.88
2022-10-05T11:37:44.553Z,10.40
2022-10-05T11:40:33.226Z,4.10
2022-10-05T11:43:36.753Z,4.15
2022-10-05T11:46:13.731Z,5.63
2022-10-05T11:49:07.846Z,6.25
2022-10-05T11:52:03.069Z,5.25
2022-10-05T11:55:10.991Z,8.45
2022-10-05T11:57:48.812Z,5.90
2022-10-05T12:00:19.501Z,8.00
2022-10-05T12:03:04.560Z,8.00
2022-10-05T12:05:39.136Z,5.20
2022-10-05T12:08:25.138Z,6.43
2022-10-05T12:11:03.764Z,4.63
2022-10-05T12:13:41.345Z,6.20
2022-10-05T12:16:15.452Z,7.97
2022-10-05T12:18:51.022Z,6.63
2022-10-05T12:21:27.564Z,3.88
2022-10-05T12:27:21.665Z,6.05
2022-10-05T12:29:56.849Z,5.60
2022-10-05T12:32:30.329Z,7.30
2022-10-05T12:35:05.849Z,4.97
2022-10-05T12:37:46.409Z,6.40
2022-10-05T12:40:27.687Z,8.38
2022-10-05T12:43:05.790Z,6.10
2022-10-05T12:45:47.568Z,11.07
2022-10-05T12:48:28.476Z,4.82
2022-10-05T12:51:01.539Z,5.55
2022-10-05T12:53:41.715Z,5.88
2022-10-05T12:56:16.055Z,5.93
2022-10-05T12:58:56.545Z,3.97
2022-10-05T13:01:35.000Z,6.28
2022-10-05T13:04:24.690Z,5.25
2022-10-05T13:07:06.638Z,5.28
2022-10-05T13:09:44.323Z,9.15
2022-10-05T13:12:21.332Z,7.50
2022-10-05T13:14:59.933Z,8.30
2022-10-05T13:17:39.589Z,3.50
2022-10-05T13:20:14.723Z,8.15
2022-10-05T13:22:47.578Z,4.80
2022-10-05T13:25:26.611Z,7.20
2022-10-05T13:28:17.101Z,4.73
2022-10-05T13:30:56.287Z,4.20
2022-10-05T13:33:32.721Z,6.90
2022-10-05T13:36:08.465Z,10.63
2022-10-05T13:38:52.786Z,9.82
2022-10-05T13:41:29.369Z,6.70
2022-10-05T13:44:11.852Z,4.22
2022-10-05T13:46:47.438Z,4.43
2022-10-05T13:49:26.544Z,6.68
2022-10-05T13:52:01.168Z,5.03
2022-10-05T13:54:38.749Z,9.82
2022-10-05T13:57:21.083Z,8.90
2022-10-05T13:59:55.049Z,4.50
2022-10-05T14:02:28.270Z,5.80
2022-10-05T14:05:00.650Z,5.82
2022-10-05T14:07:34.396Z,5.07
2022-10-05T14:10:08.264Z,6.78
2022-10-05T14:12:41.205Z,5.07
2022-10-05T14:15:22.291Z,6.05
2022-10-05T14:17:51.198Z,4.57
2022-10-05T14:20:23.303Z,4.90
2022-10-05T14:22:57.170Z,6.40
2022-10-05T14:25:26.704Z,11.57
2022-10-05T14:28:00.783Z,8.88
2022-10-05T14:30:30.306Z,9.38
2022-10-05T14:33:08.625Z,8.10
2022-10-05T14:35:48.966Z,6.50
2022-10-05T14:38:22.571Z,4.97
2022-10-05T14:41:21.267Z,11.05
2022-10-05T14:43:55.932Z,5.60
2022-10-05T14:46:29.554Z,10.70
2022-10-05T14:49:22.093Z,6.88
2022-10-05T14:51:51.459Z,7.13
2022-10-05T14:54:33.252Z,6.65
2022-10-05T14:57:19.176Z,4.25
2022-10-05T15:00:01.521Z,8.07
2022-10-05T15:03:05.234Z,4.60
2022-10-05T15:05:39.889Z,5.88
2022-10-05T15:08:18.988Z,10.60
2022-10-05T15:10:53.041Z,6.53
2022-10-05T15:13:25.273Z,7.90
2022-10-05T15:15:55.934Z,6.28
2022-10-05T15:18:37.385Z,7.32
2022-10-05T15:21:26.310Z,6.57
2022-10-05T15:23:58.361Z,13.10
2022-10-05T15:26:36.240Z,5.53
2022-10-05T15:29:17.691Z,7.35
2022-10-05T15:31:55.963Z,12.43
2022-10-05T15:34:32.754Z,7.00
2022-10-05T15:37:16.038Z,12.95
2022-10-05T15:39:50.379Z,7.43
2022-10-05T15:42:23.638Z,8.18
2022-10-05T15:45:05.385Z,6.55
2022-10-05T15:47:47.657Z,9.93
2022-10-05T15:50:22.250Z,6.93
2022-10-05T15:52:55.343Z,13.00
2022-10-05T15:55:43.470Z,7.75
2022-10-05T15:58:31.461Z,7.90
2022-10-05T16:01:08.055Z,6.78
2022-10-05T16:03:46.953Z,7.75
2022-10-05T16:06:42.912Z,5.45
2022-10-05T16:09:28.987Z,15.63
2022-10-05T16:12:10.645Z,7.07
2022-10-05T16:14:54.500Z,8.40
2022-10-05T16:17:36.149Z,11.30
2022-10-05T16:20:23.770Z,7.53
2022-10-05T16:23:03.166Z,12.75
2022-10-05T16:25:43.973Z,8.30
2022-10-05T16:28:21.756Z,6.78
2022-10-05T16:30:59.102Z,13.60
2022-10-05T16:33:44.499Z,9.23
2022-10-05T16:36:22.726Z,7.00
2022-10-05T16:38:57.749Z,11.55
2022-10-05T16:41:32.563Z,8.88
2022-10-05T16:44:11.305Z,6.25
2022-10-05T16:46:46.558Z,7.97
2022-10-05T16:49:30.744Z,11.77
2022-10-05T16:52:00.778Z,12.18
2022-10-05T16:54:32.965Z,11.95
2022-10-05T16:57:07.953Z,8.88
2022-10-05T16:59:59.644Z,9.82
2022-10-05T17:02:42.856Z,8.13
2022-10-05T17:05:27.093Z,8.70
2022-10-05T17:08:09.550Z,13.15
2022-10-05T17:10:49.468Z,7.82
2022-10-05T17:16:06.843Z,8.32
2022-10-05T17:19:04.410Z,14.73
2022-10-05T17:21:38.806Z,12.38
2022-10-05T17:24:25.350Z,10.75
2022-10-05T17:27:02.418Z,10.57
2022-10-05T17:29:47.414Z,11.60
2022-10-05T17:32:36.049Z,9.30
2022-10-05T17:35:18.481Z,12.20
2022-10-05T17:38:14.514Z,6.65
2022-10-05T17:40:58.361Z,8.02
2022-10-05T17:43:27.506Z,8.40
2022-10-05T17:45:58.154Z,7.17
2022-10-05T17:49:08.577Z,11.30
2022-10-05T17:52:22.340Z,10.35
2022-10-05T17:55:26.611Z,14.10
2022-10-05T17:57:58.572Z,7.93
2022-10-05T18:00:43.571Z,7.20
2022-10-05T18:03:35.149Z,6.30
2022-10-05T18:06:34.077Z,9.07
2022-10-05T18:09:33.750Z,12.05
2022-10-05T18:12:39.170Z,6.60
2022-10-05T18:15:46.020Z,11.60
2022-10-05T18:18:58.035Z,9.35
2022-10-05T18:21:37.926Z,9.75
2022-10-05T18:26:59.536Z,7.65
2022-10-05T18:30:05.529Z,13.43
2022-10-05T18:33:00.266Z,9.63
2022-10-05T18:35:37.057Z,9.30
2022-10-05T18:38:16.604Z,9.77
2022-10-05T18:40:55.599Z,7.80
2022-10-05T18:43:31.562Z,10.13
2022-10-05T18:46:19.484Z,8.85
2022-10-05T18:48:58.544Z,18.15
2022-10-05T18:51:34.250Z,7.23
2022-10-05T18:54:12.978Z,10.90
2022-10-05T18:56:46.533Z,9.40
2022-10-05T18:59:39.872Z,10.75
2022-10-05T19:02:23.160Z,6.00
2022-10-05T19:05:09.183Z,10.75
2022-10-05T19:07:59.999Z,6.97
2022-10-05T19:10:35.492Z,8.93
2022-10-05T19:13:17.002Z,9.02
2022-10-05T19:15:54.434Z,6.20
2022-10-05T19:18:35.397Z,6.97
2022-10-05T19:21:12.559Z,13.18
2022-10-05T19:23:57.840Z,10.73
2022-10-05T19:26:46.871Z,8.27
2022-10-05T19:29:27.102Z,10.20
2022-10-05T19:32:00.895Z,9.38
2022-10-05T19:34:42.978Z,6.68
2022-10-05T19:37:16.399Z,8.07
2022-10-05T19:39:54.644Z,6.18
2022-10-05T19:42:46.106Z,12.00
2022-10-05T19:45:22.654Z,8.95
2022-10-05T19:48:05.800Z,8.70
2022-10-05T19:50:37.731Z,6.78
2022-10-05T19:53:14.005Z,7.88
2022-10-05T19:55:43.700Z,12.02
2022-10-05T19:58:20.967Z,8.57
2022-10-05T20:01:00.029Z,8.38
2022-10-05T20:03:29.662Z,6.63
2022-10-05T20:06:01.143Z,9.40
2022-10-05T20:08:39.249Z,9.25
2022-10-05T20:11:13.158Z,11.90
2022-10-05T20:13:45.715Z,10.73
2022-10-05T20:16:45.364Z,16.05
2022-10-05T20:22:28.805Z,12.07
2022-10-05T20:25:00.057Z,12.57
2022-10-05T20:27:46.862Z,11.38
2022-10-05T20:30:17.115Z,10.10
2022-10-05T20:32:47.645Z,15.82
2022-10-05T20:35:16.383Z,9.10
2022-10-05T20:37:45.803Z,9.38
2022-10-05T20:40:14.786Z,9.48
2022-10-05T20:42:42.640Z,13.38
2022-10-05T20:45:11.944Z,12.30
2022-10-05T20:47:40.424Z,10.00
2022-10-05T20:50:10.325Z,13.13
2022-10-05T20:55:09.852Z,11.80
2022-10-05T20:57:42.083Z,8.30
2022-10-05T21:00:12.469Z,9.82
2022-10-05T21:02:40.847Z,10.55
2022-10-05T21:05:09.768Z,10.20
2022-10-05T21:07:37.720Z,10.07
2022-10-05T21:10:08.353Z,7.72
2022-10-05T21:12:36.292Z,9.25
2022-10-05T21:15:05.096Z,10.57
2022-10-05T21:17:34.645Z,21.17
2022-10-05T21:20:02.574Z,12.75
2022-10-05T21:22:30.510Z,9.60
2022-10-05T21:24:58.450Z,11.43
2022-10-05T21:27:27.621Z,11.40
2022-10-05T21:29:55.486Z,11.48
2022-10-05T21:32:23.361Z,9.73
2022-10-05T21:34:51.302Z,11.02
2022-10-05T21:37:19.849Z,14.93
2022-10-05T21:39:47.944Z,12.32
2022-10-05T21:42:15.862Z,15.77
2022-10-05T21:44:45.104Z,13.25
2022-10-05T21:47:13.057Z,14.32
2022-10-05T21:49:42.111Z,10.18
2022-10-05T21:52:09.963Z,9.70
2022-10-05T21:54:37.849Z,11.88
2022-10-05T21:57:06.623Z,10.13
2022-10-05T21:59:35.676Z,15.00
2022-10-05T22:02:05.061Z,10.77
2022-10-05T22:04:32.977Z,14.07
2022-10-05T22:07:01.189Z,9.05
2022-10-05T22:09:29.059Z,11.18
2022-10-05T22:11:57.342Z,12.13
2022-10-05T22:14:25.230Z,16.83
2022-10-05T22:16:53.458Z,10.60
2022-10-05T22:19:22.720Z,11.77
2022-10-05T22:21:50.600Z,11.55
2022-10-05T22:24:18.484Z,9.40
2022-10-05T22:26:51.370Z,12.95
2022-10-05T22:29:19.668Z,14.65
2022-10-05T22:31:48.687Z,12.77
2022-10-05T22:34:17.861Z,9.77
2022-10-05T22:36:47.436Z,11.52
2022-10-05T22:39:15.961Z,9.57
2022-10-05T22:41:43.870Z,10.40
2022-10-05T22:44:11.851Z,10.25
2022-10-05T22:46:39.762Z,12.13
2022-10-05T22:49:07.760Z,11.93
2022-10-05T22:51:35.737Z,10.85
2022-10-05T22:54:05.221Z,13.15
2022-10-05T22:56:33.141Z,12.95
2022-10-05T22:59:01.010Z,13.45
2022-10-05T23:01:28.937Z,12.40
2022-10-05T23:03:57.280Z,13.98
2022-10-05T23:06:26.478Z,11.95
2022-10-05T23:08:55.246Z,11.90
2022-10-05T23:11:27.577Z,11.70
2022-10-05T23:13:57.394Z,12.13
2022-10-05T23:16:27.996Z,10.80
2022-10-05T23:18:56.851Z,12.68
2022-10-05T23:21:26.681Z,9.38
2022-10-05T23:23:54.693Z,17.17
2022-10-05T23:26:25.572Z,11.95
2022-10-05T23:28:53.519Z,15.27
2022-10-05T23:31:23.047Z,10.27
2022-10-05T23:33:51.247Z,12.18
2022-10-05T23:36:20.903Z,12.27
2022-10-05T23:38:48.821Z,10.57
2022-10-05T23:41:17.739Z,8.82
2022-10-05T23:43:47.683Z,12.65
2022-10-05T23:46:16.096Z,10.52
2022-10-05T23:48:44.241Z,18.50
2022-10-05T23:51:15.499Z,14.40
2022-10-05T23:53:44.464Z,22.17
2022-10-05T23:56:13.335Z,14.65
2022-10-05T23:58:41.474Z,18.70
